sensor_id;sensor_type;location;lat;lon;timestamp;temperature;humidity
65637;DHT22;52327;42.622;23.316;2023-07-28T00:02:03;14.78;54.06
65637;DHT22;52327;42.622;23.316;2023-07-28T00:04:29;14.67;53.77
65637;DHT22;52327;42.622;23.316;2023-07-28T00:06:54;14.57;54.19
65637;DHT22;52327;42.622;23.316;2023-07-28T00:09:19;14.37;54.79
65637;DHT22;52327;42.622;23.316;2023-07-28T00:11:45;14.20;55.44
65637;DHT22;52327;42.622;23.316;2023-07-28T00:14:11;14.19;55.42
65637;DHT22;52327;42.622;23.316;2023-07-28T00:16:37;14.20;54.18
65637;DHT22;52327;42.622;23.316;2023-07-28T00:19:03;14.24;55.64
65637;DHT22;52327;42.622;23.316;2023-07-28T00:21:29;14.36;54.94
65637;DHT22;52327;42.622;23.316;2023-07-28T00:23:54;14.23;54.55
65637;DHT22;52327;42.622;23.316;2023-07-28T00:26:20;14.03;55.37
65637;DHT22;52327;42.622;23.316;2023-07-28T00:28:45;13.95;55.57
65637;DHT22;52327;42.622;23.316;2023-07-28T00:31:11;13.79;56.14
65637;DHT22;52327;42.622;23.316;2023-07-28T00:33:37;13.79;56.32
65637;DHT22;52327;42.622;23.316;2023-07-28T00:36:03;13.89;56.74
65637;DHT22;52327;42.622;23.316;2023-07-28T00:38:28;13.82;55.58
65637;DHT22;52327;42.622;23.316;2023-07-28T00:40:54;13.69;55.70
65637;DHT22;52327;42.622;23.316;2023-07-28T00:43:19;13.83;55.55
65637;DHT22;52327;42.622;23.316;2023-07-28T00:45:45;14.02;54.65
65637;DHT22;52327;42.622;23.316;2023-07-28T00:48:12;14.06;53.57
65637;DHT22;52327;42.622;23.316;2023-07-28T00:50:41;14.06;53.15
65637;DHT22;52327;42.622;23.316;2023-07-28T00:53:09;13.98;53.52
65637;DHT22;52327;42.622;23.316;2023-07-28T00:55:34;13.93;53.57
65637;DHT22;52327;42.622;23.316;2023-07-28T00:58:00;13.87;53.47
65637;DHT22;52327;42.622;23.316;2023-07-28T01:00:25;13.93;51.88
65637;DHT22;52327;42.622;23.316;2023-07-28T01:02:51;13.85;53.03
65637;DHT22;52327;42.622;23.316;2023-07-28T01:05:16;13.85;52.22
65637;DHT22;52327;42.622;23.316;2023-07-28T01:08:01;13.93;52.37
65637;DHT22;52327;42.622;23.316;2023-07-28T01:10:30;14.00;53.27
65637;DHT22;52327;42.622;23.316;2023-07-28T01:12:57;13.93;52.96
65637;DHT22;52327;42.622;23.316;2023-07-28T01:15:23;13.85;54.17
65637;DHT22;52327;42.622;23.316;2023-07-28T01:17:49;13.86;53.72
65637;DHT22;52327;42.622;23.316;2023-07-28T01:20:14;13.83;53.73
65637;DHT22;52327;42.622;23.316;2023-07-28T01:23:05;13.69;54.42
65637;DHT22;52327;42.622;23.316;2023-07-28T01:28:17;13.70;53.61
65637;DHT22;52327;42.622;23.316;2023-07-28T01:30:43;13.55;53.84
65637;DHT22;52327;42.622;23.316;2023-07-28T01:33:09;13.51;54.57
65637;DHT22;52327;42.622;23.316;2023-07-28T01:35:37;13.57;55.16
65637;DHT22;52327;42.622;23.316;2023-07-28T01:38:03;13.42;55.68
65637;DHT22;52327;42.622;23.316;2023-07-28T01:40:29;13.28;55.47
65637;DHT22;52327;42.622;23.316;2023-07-28T01:42:55;13.22;55.84
65637;DHT22;52327;42.622;23.316;2023-07-28T01:45:20;13.19;56.96
65637;DHT22;52327;42.622;23.316;2023-07-28T01:47:46;13.22;56.74
65637;DHT22;52327;42.622;23.316;2023-07-28T01:50:11;13.19;56.45
65637;DHT22;52327;42.622;23.316;2023-07-28T01:52:37;13.12;57.25
65637;DHT22;52327;42.622;23.316;2023-07-28T01:55:03;13.18;57.92
65637;DHT22;52327;42.622;23.316;2023-07-28T01:57:32;13.21;58.23
65637;DHT22;52327;42.622;23.316;2023-07-28T01:59:58;13.32;58.40
65637;DHT22;52327;42.622;23.316;2023-07-28T02:02:24;13.31;57.96
65637;DHT22;52327;42.622;23.316;2023-07-28T02:04:49;13.24;59.26
65637;DHT22;52327;42.622;23.316;2023-07-28T02:07:14;13.11;60.09
65637;DHT22;52327;42.622;23.316;2023-07-28T02:09:40;13.06;61.05
65637;DHT22;52327;42.622;23.316;2023-07-28T02:12:06;12.73;62.11
65637;DHT22;52327;42.622;23.316;2023-07-28T02:14:31;12.63;62.60
65637;DHT22;52327;42.622;23.316;2023-07-28T02:16:57;12.61;63.12
65637;DHT22;52327;42.622;23.316;2023-07-28T02:19:24;12.68;62.79
65637;DHT22;52327;42.622;23.316;2023-07-28T02:21:49;12.60;63.03
65637;DHT22;52327;42.622;23.316;2023-07-28T02:24:15;12.56;63.16
65637;DHT22;52327;42.622;23.316;2023-07-28T02:26:40;12.60;61.89
65637;DHT22;52327;42.622;23.316;2023-07-28T02:29:06;12.63;63.12
65637;DHT22;52327;42.622;23.316;2023-07-28T02:31:31;12.64;62.92
65637;DHT22;52327;42.622;23.316;2023-07-28T02:33:57;12.56;63.36
65637;DHT22;52327;42.622;23.316;2023-07-28T02:36:22;12.56;63.78
65637;DHT22;52327;42.622;23.316;2023-07-28T02:38:48;12.61;62.85
65637;DHT22;52327;42.622;23.316;2023-07-28T02:41:13;12.52;63.84
65637;DHT22;52327;42.622;23.316;2023-07-28T02:43:38;12.56;64.96
65637;DHT22;52327;42.622;23.316;2023-07-28T02:46:04;12.75;63.96
65637;DHT22;52327;42.622;23.316;2023-07-28T02:48:30;12.72;63.90
65637;DHT22;52327;42.622;23.316;2023-07-28T02:50:55;12.80;63.72
65637;DHT22;52327;42.622;23.316;2023-07-28T02:53:21;12.73;63.62
65637;DHT22;52327;42.622;23.316;2023-07-28T02:55:48;12.86;63.26
65637;DHT22;52327;42.622;23.316;2023-07-28T02:58:14;12.75;64.00
65637;DHT22;52327;42.622;23.316;2023-07-28T03:00:43;12.64;63.67
65637;DHT22;52327;42.622;23.316;2023-07-28T03:03:10;12.52;64.35
65637;DHT22;52327;42.622;23.316;2023-07-28T03:05:37;12.37;64.80
65637;DHT22;52327;42.622;23.316;2023-07-28T03:08:03;12.30;65.07
65637;DHT22;52327;42.622;23.316;2023-07-28T03:10:29;12.39;64.68
65637;DHT22;52327;42.622;23.316;2023-07-28T03:12:55;12.47;64.80
65637;DHT22;52327;42.622;23.316;2023-07-28T03:15:21;12.40;65.14
65637;DHT22;52327;42.622;23.316;2023-07-28T03:17:50;12.33;65.13
65637;DHT22;52327;42.622;23.316;2023-07-28T03:20:16;12.32;66.38
65637;DHT22;52327;42.622;23.316;2023-07-28T03:22:42;12.43;66.82
65637;DHT22;52327;42.622;23.316;2023-07-28T03:25:08;12.40;65.42
65637;DHT22;52327;42.622;23.316;2023-07-28T03:27:33;12.43;65.24
65637;DHT22;52327;42.622;23.316;2023-07-28T03:29:59;12.55;65.00
65637;DHT22;52327;42.622;23.316;2023-07-28T03:32:25;12.64;65.21
65637;DHT22;52327;42.622;23.316;2023-07-28T03:34:50;12.67;65.27
65637;DHT22;52327;42.622;23.316;2023-07-28T03:37:16;12.72;65.32
65637;DHT22;52327;42.622;23.316;2023-07-28T03:39:41;12.76;66.11
65637;DHT22;52327;42.622;23.316;2023-07-28T03:42:07;12.94;65.51
65637;DHT22;52327;42.622;23.316;2023-07-28T03:44:33;13.03;65.64
65637;DHT22;52327;42.622;23.316;2023-07-28T03:46:59;13.15;65.48
65637;DHT22;52327;42.622;23.316;2023-07-28T03:49:24;13.32;65.40
65637;DHT22;52327;42.622;23.316;2023-07-28T03:51:50;13.48;65.26
65637;DHT22;52327;42.622;23.316;2023-07-28T03:54:16;13.48;65.37
65637;DHT22;52327;42.622;23.316;2023-07-28T03:56:41;13.47;66.03
65637;DHT22;52327;42.622;23.316;2023-07-28T03:59:06;13.51;66.46
65637;DHT22;52327;42.622;23.316;2023-07-28T04:01:32;13.55;66.63
65637;DHT22;52327;42.622;23.316;2023-07-28T04:03:57;13.61;66.69
65637;DHT22;52327;42.622;23.316;2023-07-28T04:06:44;13.72;66.83
65637;DHT22;52327;42.622;23.316;2023-07-28T04:09:13;13.78;67.07
65637;DHT22;52327;42.622;23.316;2023-07-28T04:11:41;13.78;66.50
65637;DHT22;52327;42.622;23.316;2023-07-28T04:14:07;13.78;65.70
65637;DHT22;52327;42.622;23.316;2023-07-28T04:16:33;13.87;65.59
65637;DHT22;52327;42.622;23.316;2023-07-28T04:18:58;14.00;66.16
65637;DHT22;52327;42.622;23.316;2023-07-28T04:21:24;14.08;66.69
65637;DHT22;52327;42.622;23.316;2023-07-28T04:23:49;14.23;65.95
65637;DHT22;52327;42.622;23.316;2023-07-28T04:26:16;14.33;65.24
65637;DHT22;52327;42.622;23.316;2023-07-28T04:28:42;14.44;64.84
65637;DHT22;52327;42.622;23.316;2023-07-28T04:31:07;14.47;63.87
65637;DHT22;52327;42.622;23.316;2023-07-28T04:33:33;14.59;64.01
65637;DHT22;52327;42.622;23.316;2023-07-28T04:36:00;14.67;63.69
65637;DHT22;52327;42.622;23.316;2023-07-28T04:38:26;14.77;63.65
65637;DHT22;52327;42.622;23.316;2023-07-28T04:40:51;14.81;63.22
65637;DHT22;52327;42.622;23.316;2023-07-28T04:43:17;14.84;62.31
65637;DHT22;52327;42.622;23.316;2023-07-28T04:45:44;14.89;62.63
65637;DHT22;52327;42.622;23.316;2023-07-28T04:48:10;14.96;62.59
65637;DHT22;52327;42.622;23.316;2023-07-28T04:50:35;14.89;61.92
65637;DHT22;52327;42.622;23.316;2023-07-28T04:53:01;14.98;62.78
65637;DHT22;52327;42.622;23.316;2023-07-28T04:55:27;15.16;62.57
65637;DHT22;52327;42.622;23.316;2023-07-28T04:57:53;15.19;61.39
65637;DHT22;52327;42.622;23.316;2023-07-28T05:00:19;15.26;61.78
65637;DHT22;52327;42.622;23.316;2023-07-28T05:02:44;15.35;61.84
65637;DHT22;52327;42.622;23.316;2023-07-28T05:05:10;15.36;61.76
65637;DHT22;52327;42.622;23.316;2023-07-28T05:07:35;15.35;61.98
65637;DHT22;52327;42.622;23.316;2023-07-28T05:10:01;15.49;62.10
65637;DHT22;52327;42.622;23.316;2023-07-28T05:12:27;15.53;61.43
65637;DHT22;52327;42.622;23.316;2023-07-28T05:14:53;15.63;61.46
65637;DHT22;52327;42.622;23.316;2023-07-28T05:17:18;15.76;60.91
65637;DHT22;52327;42.622;23.316;2023-07-28T05:19:44;15.76;60.82
65637;DHT22;52327;42.622;23.316;2023-07-28T05:22:09;15.74;61.57
65637;DHT22;52327;42.622;23.316;2023-07-28T05:24:35;15.64;61.28
65637;DHT22;52327;42.622;23.316;2023-07-28T05:27:01;15.62;60.75
65637;DHT22;52327;42.622;23.316;2023-07-28T05:29:26;15.73;60.63
65637;DHT22;52327;42.622;23.316;2023-07-28T05:31:51;15.82;61.02
65637;DHT22;52327;42.622;23.316;2023-07-28T05:34:17;15.76;60.38
65637;DHT22;52327;42.622;23.316;2023-07-28T05:36:43;15.97;60.47
65637;DHT22;52327;42.622;23.316;2023-07-28T05:39:09;16.03;60.59
65637;DHT22;52327;42.622;23.316;2023-07-28T05:41:35;16.17;60.34
65637;DHT22;52327;42.622;23.316;2023-07-28T05:44:01;16.26;60.09
65637;DHT22;52327;42.622;23.316;2023-07-28T05:46:26;16.28;60.04
65637;DHT22;52327;42.622;23.316;2023-07-28T05:48:54;16.41;60.16
65637;DHT22;52327;42.622;23.316;2023-07-28T05:51:20;16.48;59.66
65637;DHT22;52327;42.622;23.316;2023-07-28T05:53:45;16.56;59.43
65637;DHT22;52327;42.622;23.316;2023-07-28T05:56:11;16.64;59.47
65637;DHT22;52327;42.622;23.316;2023-07-28T05:58:36;16.69;59.90
65637;DHT22;52327;42.622;23.316;2023-07-28T06:01:01;16.73;60.12
65637;DHT22;52327;42.622;23.316;2023-07-28T06:03:27;16.79;59.64
65637;DHT22;52327;42.622;23.316;2023-07-28T06:05:54;16.95;58.48
65637;DHT22;52327;42.622;23.316;2023-07-28T06:08:19;16.93;58.58
65637;DHT22;52327;42.622;23.316;2023-07-28T06:10:45;16.86;58.05
65637;DHT22;52327;42.622;23.316;2023-07-28T06:13:10;16.89;58.24
65637;DHT22;52327;42.622;23.316;2023-07-28T06:15:39;16.93;57.07
65637;DHT22;52327;42.622;23.316;2023-07-28T06:18:06;16.61;58.49
65637;DHT22;52327;42.622;23.316;2023-07-28T06:20:31;16.69;58.77
65637;DHT22;52327;42.622;23.316;2023-07-28T06:22:56;16.75;58.88
65637;DHT22;52327;42.622;23.316;2023-07-28T06:25:22;16.68;58.97
65637;DHT22;52327;42.622;23.316;2023-07-28T06:27:47;16.85;58.17
65637;DHT22;52327;42.622;23.316;2023-07-28T06:30:13;17.00;58.20
65637;DHT22;52327;42.622;23.316;2023-07-28T06:32:38;17.09;58.09
65637;DHT22;52327;42.622;23.316;2023-07-28T06:35:05;17.36;56.74
65637;DHT22;52327;42.622;23.316;2023-07-28T06:37:32;17.33;57.17
65637;DHT22;52327;42.622;23.316;2023-07-28T06:39:58;17.51;56.83
65637;DHT22;52327;42.622;23.316;2023-07-28T06:42:23;17.50;56.57
65637;DHT22;52327;42.622;23.316;2023-07-28T06:44:52;17.53;56.29
65637;DHT22;52327;42.622;23.316;2023-07-28T06:47:18;17.43;55.18
65637;DHT22;52327;42.622;23.316;2023-07-28T06:49:43;17.40;55.49
65637;DHT22;52327;42.622;23.316;2023-07-28T06:52:09;17.57;55.09
65637;DHT22;52327;42.622;23.316;2023-07-28T06:54:35;17.67;54.83
65637;DHT22;52327;42.622;23.316;2023-07-28T06:57:00;18.04;54.64
65637;DHT22;52327;42.622;23.316;2023-07-28T06:59:26;18.16;54.60
65637;DHT22;52327;42.622;23.316;2023-07-28T07:01:51;18.28;54.35
65637;DHT22;52327;42.622;23.316;2023-07-28T07:04:18;18.30;54.07
65637;DHT22;52327;42.622;23.316;2023-07-28T07:06:43;18.30;54.64
65637;DHT22;52327;42.622;23.316;2023-07-28T07:09:10;18.46;54.38
65637;DHT22;52327;42.622;23.316;2023-07-28T07:11:39;18.50;54.52
65637;DHT22;52327;42.622;23.316;2023-07-28T07:14:05;18.49;54.44
65637;DHT22;52327;42.622;23.316;2023-07-28T07:16:30;18.26;55.23
65637;DHT22;52327;42.622;23.316;2023-07-28T07:18:56;18.33;55.14
65637;DHT22;52327;42.622;23.316;2023-07-28T07:21:21;18.25;55.52
65637;DHT22;52327;42.622;23.316;2023-07-28T07:23:46;18.13;56.19
65637;DHT22;52327;42.622;23.316;2023-07-28T07:26:12;18.39;56.11
65637;DHT22;52327;42.622;23.316;2023-07-28T07:28:38;18.59;55.87
65637;DHT22;52327;42.622;23.316;2023-07-28T07:31:03;18.71;55.39
65637;DHT22;52327;42.622;23.316;2023-07-28T07:33:29;18.93;54.87
65637;DHT22;52327;42.622;23.316;2023-07-28T07:35:54;18.66;53.67
65637;DHT22;52327;42.622;23.316;2023-07-28T07:38:20;18.64;53.69
65637;DHT22;52327;42.622;23.316;2023-07-28T07:40:48;18.30;54.83
65637;DHT22;52327;42.622;23.316;2023-07-28T07:43:14;18.39;55.04
65637;DHT22;52327;42.622;23.316;2023-07-28T07:45:45;18.71;55.36
65637;DHT22;52327;42.622;23.316;2023-07-28T07:48:12;18.99;54.69
65637;DHT22;52327;42.622;23.316;2023-07-28T07:50:38;19.34;52.81
65637;DHT22;52327;42.622;23.316;2023-07-28T07:53:04;19.20;52.14
65637;DHT22;52327;42.622;23.316;2023-07-28T07:55:30;19.22;53.23
65637;DHT22;52327;42.622;23.316;2023-07-28T07:57:57;19.38;53.16
65637;DHT22;52327;42.622;23.316;2023-07-28T08:00:22;19.65;52.41
65637;DHT22;52327;42.622;23.316;2023-07-28T08:02:49;19.83;52.02
65637;DHT22;52327;42.622;23.316;2023-07-28T08:05:14;19.87;52.39
65637;DHT22;52327;42.622;23.316;2023-07-28T08:07:40;19.96;51.73
65637;DHT22;52327;42.622;23.316;2023-07-28T08:10:06;20.24;50.83
65637;DHT22;52327;42.622;23.316;2023-07-28T08:12:32;20.32;51.01
65637;DHT22;52327;42.622;23.316;2023-07-28T08:14:57;20.09;50.76
65637;DHT22;52327;42.622;23.316;2023-07-28T08:17:23;20.17;50.53
65637;DHT22;52327;42.622;23.316;2023-07-28T08:19:48;20.14;50.91
65637;DHT22;52327;42.622;23.316;2023-07-28T08:22:14;20.02;50.94
65637;DHT22;52327;42.622;23.316;2023-07-28T08:24:40;20.02;50.31
65637;DHT22;52327;42.622;23.316;2023-07-28T08:27:05;19.86;51.17
65637;DHT22;52327;42.622;23.316;2023-07-28T08:29:31;20.13;51.08
65637;DHT22;52327;42.622;23.316;2023-07-28T08:31:56;20.16;50.96
65637;DHT22;52327;42.622;23.316;2023-07-28T08:34:22;20.47;50.22
65637;DHT22;52327;42.622;23.316;2023-07-28T08:36:47;20.74;49.51
65637;DHT22;52327;42.622;23.316;2023-07-28T08:39:13;20.75;50.00
65637;DHT22;52327;42.622;23.316;2023-07-28T08:41:40;20.84;48.96
65637;DHT22;52327;42.622;23.316;2023-07-28T08:44:07;20.87;49.26
65637;DHT22;52327;42.622;23.316;2023-07-28T08:46:32;20.80;49.41
65637;DHT22;52327;42.622;23.316;2023-07-28T08:48:59;20.90;49.84
65637;DHT22;52327;42.622;23.316;2023-07-28T08:51:25;20.94;49.02
65637;DHT22;52327;42.622;23.316;2023-07-28T08:53:50;20.90;47.79
65637;DHT22;52327;42.622;23.316;2023-07-28T08:56:16;21.19;48.31
65637;DHT22;52327;42.622;23.316;2023-07-28T08:58:41;21.39;48.36
65637;DHT22;52327;42.622;23.316;2023-07-28T09:01:07;21.55;47.98
65637;DHT22;52327;42.622;23.316;2023-07-28T09:03:32;21.60;48.16
65637;DHT22;52327;42.622;23.316;2023-07-28T09:06:02;21.82;47.77
65637;DHT22;52327;42.622;23.316;2023-07-28T09:08:32;21.86;46.85
65637;DHT22;52327;42.622;23.316;2023-07-28T09:11:01;21.80;46.86
65637;DHT22;52327;42.622;23.316;2023-07-28T09:13:35;21.96;46.24
65637;DHT22;52327;42.622;23.316;2023-07-28T09:16:01;22.07;46.06
65637;DHT22;52327;42.622;23.316;2023-07-28T09:18:26;22.13;46.15
65637;DHT22;52327;42.622;23.316;2023-07-28T09:20:55;22.14;46.46
65637;DHT22;52327;42.622;23.316;2023-07-28T09:23:30;22.44;45.81
65637;DHT22;52327;42.622;23.316;2023-07-28T09:25:59;22.28;45.48
65637;DHT22;52327;42.622;23.316;2023-07-28T09:28:37;21.86;45.04
65637;DHT22;52327;42.622;23.316;2023-07-28T09:31:04;21.87;45.97
65637;DHT22;52327;42.622;23.316;2023-07-28T09:33:33;21.89;45.19
65637;DHT22;52327;42.622;23.316;2023-07-28T09:36:10;21.80;46.01
65637;DHT22;52327;42.622;23.316;2023-07-28T09:38:37;21.96;46.00
65637;DHT22;52327;42.622;23.316;2023-07-28T09:41:04;22.28;45.78
65637;DHT22;52327;42.622;23.316;2023-07-28T09:43:35;22.28;45.19
65637;DHT22;52327;42.622;23.316;2023-07-28T09:46:04;22.30;45.33
65637;DHT22;52327;42.622;23.316;2023-07-28T09:48:32;22.58;44.35
65637;DHT22;52327;42.622;23.316;2023-07-28T09:51:05;22.45;43.00
65637;DHT22;52327;42.622;23.316;2023-07-28T09:53:35;22.56;43.99
65637;DHT22;52327;42.622;23.316;2023-07-28T09:56:04;22.79;43.89
65637;DHT22;52327;42.622;23.316;2023-07-28T09:58:32;22.79;44.21
65637;DHT22;52327;42.622;23.316;2023-07-28T10:00:59;22.85;43.72
65637;DHT22;52327;42.622;23.316;2023-07-28T10:03:25;22.52;44.25
65637;DHT22;52327;42.622;23.316;2023-07-28T10:05:51;22.43;43.98
65637;DHT22;52327;42.622;23.316;2023-07-28T10:08:17;22.66;43.29
65637;DHT22;52327;42.622;23.316;2023-07-28T10:10:43;22.45;44.33
65637;DHT22;52327;42.622;23.316;2023-07-28T10:13:19;22.56;44.20
65637;DHT22;52327;42.622;23.316;2023-07-28T10:15:46;22.48;43.70
65637;DHT22;52327;42.622;23.316;2023-07-28T10:18:13;22.40;43.03
65637;DHT22;52327;42.622;23.316;2023-07-28T10:20:39;22.75;42.93
65637;DHT22;52327;42.622;23.316;2023-07-28T10:23:12;22.91;44.38
65637;DHT22;52327;42.622;23.316;2023-07-28T10:25:39;23.00;42.22
65637;DHT22;52327;42.622;23.316;2023-07-28T10:28:06;23.15;42.45
65637;DHT22;52327;42.622;23.316;2023-07-28T10:30:38;23.37;43.26
65637;DHT22;52327;42.622;23.316;2023-07-28T10:33:38;23.53;44.06
65637;DHT22;52327;42.622;23.316;2023-07-28T10:38:47;23.80;40.98
65637;DHT22;52327;42.622;23.316;2023-07-28T10:41:24;23.70;41.44
65637;DHT22;52327;42.622;23.316;2023-07-28T10:43:51;24.01;41.73
65637;DHT22;52327;42.622;23.316;2023-07-28T10:46:18;24.24;41.15
65637;DHT22;52327;42.622;23.316;2023-07-28T10:48:48;24.17;40.13
65637;DHT22;52327;42.622;23.316;2023-07-28T10:51:26;24.53;39.75
65637;DHT22;52327;42.622;23.316;2023-07-28T10:53:59;24.59;41.37
65637;DHT22;52327;42.622;23.316;2023-07-28T10:56:25;24.69;39.31
65637;DHT22;52327;42.622;23.316;2023-07-28T10:59:03;24.79;39.18
65637;DHT22;52327;42.622;23.316;2023-07-28T11:01:36;24.93;39.12
65637;DHT22;52327;42.622;23.316;2023-07-28T11:04:16;25.20;38.78
65637;DHT22;52327;42.622;23.316;2023-07-28T11:06:44;24.86;35.29
65637;DHT22;52327;42.622;23.316;2023-07-28T11:09:10;24.59;34.09
65637;DHT22;52327;42.622;23.316;2023-07-28T11:11:37;24.62;34.78
65637;DHT22;52327;42.622;23.316;2023-07-28T11:14:05;24.69;33.48
65637;DHT22;52327;42.622;23.316;2023-07-28T11:16:34;24.83;34.31
65637;DHT22;52327;42.622;23.316;2023-07-28T11:19:01;24.97;33.94
65637;DHT22;52327;42.622;23.316;2023-07-28T11:21:28;25.16;34.03
65637;DHT22;52327;42.622;23.316;2023-07-28T11:23:53;25.16;34.64
65637;DHT22;52327;42.622;23.316;2023-07-28T11:26:20;25.13;34.48
65637;DHT22;52327;42.622;23.316;2023-07-28T11:28:46;25.41;34.85
65637;DHT22;52327;42.622;23.316;2023-07-28T11:31:12;25.42;34.46
65637;DHT22;52327;42.622;23.316;2023-07-28T11:33:39;25.47;34.22
65637;DHT22;52327;42.622;23.316;2023-07-28T11:36:05;25.67;34.96
65637;DHT22;52327;42.622;23.316;2023-07-28T11:38:31;25.92;33.56
65637;DHT22;52327;42.622;23.316;2023-07-28T11:40:58;25.58;33.15
65637;DHT22;52327;42.622;23.316;2023-07-28T11:43:25;25.65;34.20
65637;DHT22;52327;42.622;23.316;2023-07-28T11:45:51;25.92;33.61
65637;DHT22;52327;42.622;23.316;2023-07-28T11:48:16;25.96;32.99
65637;DHT22;52327;42.622;23.316;2023-07-28T11:50:43;26.23;32.73
65637;DHT22;52327;42.622;23.316;2023-07-28T11:53:10;26.64;33.29
65637;DHT22;52327;42.622;23.316;2023-07-28T11:55:38;26.61;32.77
65637;DHT22;52327;42.622;23.316;2023-07-28T11:58:07;26.83;32.83
65637;DHT22;52327;42.622;23.316;2023-07-28T12:00:37;26.88;32.80
65637;DHT22;52327;42.622;23.316;2023-07-28T12:03:08;26.98;33.15
65637;DHT22;52327;42.622;23.316;2023-07-28T12:05:38;27.20;33.21
65637;DHT22;52327;42.622;23.316;2023-07-28T12:08:04;27.30;32.81
65637;DHT22;52327;42.622;23.316;2023-07-28T12:10:30;27.70;32.07
65637;DHT22;52327;42.622;23.316;2023-07-28T12:13:06;28.09;31.06
65637;DHT22;52327;42.622;23.316;2023-07-28T12:15:33;27.90;31.12
65637;DHT22;52327;42.622;23.316;2023-07-28T12:18:07;28.00;31.65
65637;DHT22;52327;42.622;23.316;2023-07-28T12:20:54;28.47;30.15
65637;DHT22;52327;42.622;23.316;2023-07-28T12:23:21;28.54;30.83
65637;DHT22;52327;42.622;23.316;2023-07-28T12:25:48;28.46;29.72
65637;DHT22;52327;42.622;23.316;2023-07-28T12:28:15;28.81;29.64
65637;DHT22;52327;42.622;23.316;2023-07-28T12:30:40;29.12;30.36
65637;DHT22;52327;42.622;23.316;2023-07-28T12:33:06;29.09;30.37
65637;DHT22;52327;42.622;23.316;2023-07-28T12:35:34;29.15;30.27
65637;DHT22;52327;42.622;23.316;2023-07-28T12:38:05;29.01;31.33
65637;DHT22;52327;42.622;23.316;2023-07-28T12:40:32;29.80;30.38
65637;DHT22;52327;42.622;23.316;2023-07-28T12:42:59;29.57;30.58
65637;DHT22;52327;42.622;23.316;2023-07-28T12:45:25;29.77;30.65
65637;DHT22;52327;42.622;23.316;2023-07-28T12:47:55;30.35;29.93
65637;DHT22;52327;42.622;23.316;2023-07-28T12:50:21;30.32;29.51
65637;DHT22;52327;42.622;23.316;2023-07-28T12:52:50;30.49;29.54
65637;DHT22;52327;42.622;23.316;2023-07-28T12:55:17;30.69;29.77
65637;DHT22;52327;42.622;23.316;2023-07-28T12:57:43;30.67;29.19
65637;DHT22;52327;42.622;23.316;2023-07-28T13:00:09;31.00;28.86
65637;DHT22;52327;42.622;23.316;2023-07-28T13:02:39;29.90;29.26
65637;DHT22;52327;42.622;23.316;2023-07-28T13:05:05;30.48;29.76
65637;DHT22;52327;42.622;23.316;2023-07-28T13:07:31;30.47;28.58
65637;DHT22;52327;42.622;23.316;2023-07-28T13:09:56;31.50;28.03
65637;DHT22;52327;42.622;23.316;2023-07-28T13:12:22;30.86;29.40
65637;DHT22;52327;42.622;23.316;2023-07-28T13:14:47;31.08;28.64
65637;DHT22;52327;42.622;23.316;2023-07-28T13:17:12;31.03;28.89
65637;DHT22;52327;42.622;23.316;2023-07-28T13:19:39;31.08;28.07
65637;DHT22;52327;42.622;23.316;2023-07-28T13:22:05;31.70;27.87
65637;DHT22;52327;42.622;23.316;2023-07-28T13:24:31;31.66;27.34
65637;DHT22;52327;42.622;23.316;2023-07-28T13:26:57;31.56;27.34
65637;DHT22;52327;42.622;23.316;2023-07-28T13:29:23;31.90;27.64
65637;DHT22;52327;42.622;23.316;2023-07-28T13:31:49;31.87;27.17
65637;DHT22;52327;42.622;23.316;2023-07-28T13:34:14;31.59;27.73
65637;DHT22;52327;42.622;23.316;2023-07-28T13:36:40;31.26;28.23
65637;DHT22;52327;42.622;23.316;2023-07-28T13:39:05;31.39;27.64
65637;DHT22;52327;42.622;23.316;2023-07-28T13:41:31;30.93;28.20
65637;DHT22;52327;42.622;23.316;2023-07-28T13:43:56;30.89;28.83
65637;DHT22;52327;42.622;23.316;2023-07-28T13:46:22;31.44;28.04
65637;DHT22;52327;42.622;23.316;2023-07-28T13:48:47;31.69;28.18
65637;DHT22;52327;42.622;23.316;2023-07-28T13:51:13;31.76;27.79
65637;DHT22;52327;42.622;23.316;2023-07-28T13:53:38;31.19;28.33
65637;DHT22;52327;42.622;23.316;2023-07-28T13:56:04;31.10;29.06
65637;DHT22;52327;42.622;23.316;2023-07-28T13:58:30;30.59;29.42
65637;DHT22;52327;42.622;23.316;2023-07-28T14:00:56;31.13;29.11
65637;DHT22;52327;42.622;23.316;2023-07-28T14:03:21;31.27;28.77
65637;DHT22;52327;42.622;23.316;2023-07-28T14:05:47;31.22;28.77
65637;DHT22;52327;42.622;23.316;2023-07-28T14:08:12;31.04;28.79
65637;DHT22;52327;42.622;23.316;2023-07-28T14:10:38;31.15;28.61
65637;DHT22;52327;42.622;23.316;2023-07-28T14:13:03;31.76;27.99
65637;DHT22;52327;42.622;23.316;2023-07-28T14:15:29;32.12;27.63
65637;DHT22;52327;42.622;23.316;2023-07-28T14:17:54;31.43;27.41
65637;DHT22;52327;42.622;23.316;2023-07-28T14:20:20;31.61;28.45
65637;DHT22;52327;42.622;23.316;2023-07-28T14:22:45;31.47;28.03
65637;DHT22;52327;42.622;23.316;2023-07-28T14:25:11;31.71;28.03
65637;DHT22;52327;42.622;23.316;2023-07-28T14:27:36;31.15;27.91
65637;DHT22;52327;42.622;23.316;2023-07-28T14:30:05;31.43;27.33
65637;DHT22;52327;42.622;23.316;2023-07-28T14:32:30;31.43;28.04
65637;DHT22;52327;42.622;23.316;2023-07-28T14:34:56;31.78;27.23
65637;DHT22;52327;42.622;23.316;2023-07-28T14:37:21;31.84;27.76
65637;DHT22;52327;42.622;23.316;2023-07-28T14:39:47;31.49;28.00
65637;DHT22;52327;42.622;23.316;2023-07-28T14:42:12;30.58;28.99
65637;DHT22;52327;42.622;23.316;2023-07-28T14:44:38;30.71;28.82
65637;DHT22;52327;42.622;23.316;2023-07-28T14:47:03;30.71;29.56
65637;DHT22;52327;42.622;23.316;2023-07-28T14:49:29;30.18;29.61
65637;DHT22;52327;42.622;23.316;2023-07-28T14:51:55;29.76;30.64
65637;DHT22;52327;42.622;23.316;2023-07-28T14:54:20;29.78;30.44
65637;DHT22;52327;42.622;23.316;2023-07-28T14:56:45;29.62;32.06
65637;DHT22;52327;42.622;23.316;2023-07-28T14:59:11;29.55;30.99
65637;DHT22;52327;42.622;23.316;2023-07-28T15:01:36;29.29;32.12
65637;DHT22;52327;42.622;23.316;2023-07-28T15:04:02;29.28;31.60
65637;DHT22;52327;42.622;23.316;2023-07-28T15:06:30;29.04;31.66
65637;DHT22;52327;42.622;23.316;2023-07-28T15:08:55;29.05;32.21
65637;DHT22;52327;42.622;23.316;2023-07-28T15:11:21;28.81;32.66
65637;DHT22;52327;42.622;23.316;2023-07-28T15:13:46;28.85;32.39
65637;DHT22;52327;42.622;23.316;2023-07-28T15:16:12;28.71;32.58
65637;DHT22;52327;42.622;23.316;2023-07-28T15:18:38;28.65;33.30